Agency, Missouri
Current Conditions -  °F | °C
As of 9:53 AM on Friday 21 Nov 2014 (Local Time) from KSTJ Reporting Station
Clear Clear  
Wind Chill: 24°   Ceiling: Unl
Heat Index: 32°   Visibility: 10mi
Dew Point: 20°   Wind: 10mph
Humidity: 61%   Direction: 110°ESE
Pressure: 30.23"   Gusts: NA
Location:  39.64°N, 94.74°W
Report Text: KSTJ 211553Z 11009KT 10SM CLR 00/M07 A3023 RMK AO2 SLP248 T00001067
Loading
Personal Weather Stations






























Interactive Weather Map New forecast layout! Learn more

10-Day Weather Forecast

Advertisements
Track Severe Weather on mobile